Time;durP1;ratioP1;P1;durP2;ratioP2;P2;SDS_P1;SDS_P2;PMS_P1;PMS_P2;Temp;Humidity;BMP_temperature;BMP_pressure;BME280_temperature;BME280_humidity;BME280_pressure;Samples;Min_cycle;Max_cycle;Signal;HPM_P1;HPM_P2
2023/10/27 00:00:39;;;;;;;3.72;3.42;;;9.70;99.90;;;;;;5075783;28;20031;-66
2023/10/27 00:03:05;;;;;;;3.25;2.95;;;9.70;99.90;;;;;;5075649;28;20082;-66
2023/10/27 00:05:31;;;;;;;4.05;3.67;;;9.70;99.90;;;;;;5075691;28;20050;-66
2023/10/27 00:07:58;;;;;;;3.55;3.25;;;9.70;99.90;;;;;;5075554;28;20098;-66
2023/10/27 00:10:24;;;;;;;4.07;3.78;;;9.60;99.90;;;;;;5075275;28;20033;-67
2023/10/27 00:12:51;;;;;;;3.38;3.08;;;9.60;99.90;;;;;;5075551;28;20444;-66
2023/10/27 00:15:17;;;;;;;4.05;3.58;;;9.50;99.90;;;;;;5075607;28;20075;-68
2023/10/27 00:17:42;;;;;;;3.63;3.33;;;9.50;99.90;;;;;;5075174;28;20051;-68
2023/10/27 00:20:09;;;;;;;3.80;3.50;;;9.50;99.90;;;;;;5075425;28;20111;-67
2023/10/27 00:22:35;;;;;;;3.97;3.67;;;9.40;99.90;;;;;;5075355;28;20047;-67
2023/10/27 00:25:02;;;;;;;4.25;3.88;;;9.40;99.90;;;;;;5075357;28;20484;-67
2023/10/27 00:27:27;;;;;;;4.10;3.72;;;9.30;99.90;;;;;;5075183;28;20032;-67
2023/10/27 00:29:53;;;;;;;3.30;3.00;;;9.30;99.90;;;;;;5075050;28;20097;-67
2023/10/27 00:32:19;;;;;;;4.30;3.95;;;9.20;99.90;;;;;;5075225;28;20465;-67
2023/10/27 00:34:45;;;;;;;3.55;3.25;;;9.20;99.90;;;;;;5074861;28;20041;-66
2023/10/27 00:37:10;;;;;;;3.90;3.60;;;9.20;99.90;;;;;;5074826;28;20040;-67
2023/10/27 00:39:38;;;;;;;3.53;3.22;;;9.20;99.90;;;;;;5075036;28;20119;-67
2023/10/27 00:42:05;;;;;;;3.78;3.47;;;9.20;99.90;;;;;;5074768;28;20060;-67
2023/10/27 00:44:30;;;;;;;4.20;3.78;;;9.10;99.90;;;;;;5074982;28;20123;-67
2023/10/27 00:46:56;;;;;;;3.53;3.22;;;9.10;99.90;;;;;;5074573;28;20568;-67
2023/10/27 00:49:23;;;;;;;4.18;3.88;;;9.10;99.90;;;;;;5074917;28;20418;-67
2023/10/27 00:51:49;;;;;;;3.63;3.35;;;9.10;99.90;;;;;;5074764;28;20066;-67
2023/10/27 00:54:17;;;;;;;3.78;3.47;;;9.10;99.90;;;;;;5074762;28;20028;-67
2023/10/27 00:56:44;;;;;;;4.13;3.72;;;9.10;99.90;;;;;;5074703;28;20660;-67
2023/10/27 00:59:12;;;;;;;4.15;3.85;;;9.10;99.90;;;;;;5074406;28;20044;-67
2023/10/27 01:01:38;;;;;;;3.83;3.53;;;9.20;99.90;;;;;;5074636;28;20039;-67
2023/10/27 01:04:03;;;;;;;3.75;3.45;;;9.20;99.90;;;;;;5074336;28;20044;-66
2023/10/27 01:06:30;;;;;;;3.78;3.47;;;9.20;99.90;;;;;;5074594;28;20036;-66
2023/10/27 01:08:55;;;;;;;3.63;3.33;;;9.20;99.90;;;;;;5074404;28;20484;-66
2023/10/27 01:11:21;;;;;;;3.40;3.10;;;9.30;99.90;;;;;;5074386;28;20033;-66
2023/10/27 01:13:53;;;;;;;3.20;2.90;;;9.90;99.90;;;;;;5074365;28;20527;-66
2023/10/27 01:16:19;;;;;;;3.47;3.17;;;9.30;99.90;;;;;;5074338;28;20040;-66
2023/10/27 01:18:45;;;;;;;2.92;2.67;;;9.40;99.90;;;;;;5074257;28;20028;-66
2023/10/27 01:21:10;;;;;;;2.75;2.55;;;9.40;99.90;;;;;;5074199;28;20076;-66
2023/10/27 01:23:36;;;;;;;2.53;2.33;;;9.40;99.90;;;;;;5072561;28;20446;-66
2023/10/27 01:26:03;;;;;;;2.70;2.50;;;9.50;99.90;;;;;;5074096;28;20561;-67
2023/10/27 01:28:29;;;;;;;3.58;2.67;;;9.50;99.90;;;;;;5073780;28;20036;-67
2023/10/27 01:30:56;;;;;;;2.95;2.72;;;9.50;99.90;;;;;;5074021;28;20041;-67
2023/10/27 01:33:22;;;;;;;2.80;2.60;;;9.50;99.90;;;;;;5073691;28;20507;-67
2023/10/27 01:35:48;;;;;;;3.10;2.80;;;9.50;99.90;;;;;;5073941;28;20043;-67
2023/10/27 01:38:14;;;;;;;3.10;2.90;;;9.50;99.90;;;;;;5073950;28;20431;-67
2023/10/27 01:40:39;;;;;;;3.72;2.88;;;9.60;99.90;;;;;;5073787;28;20036;-67
2023/10/27 01:43:05;;;;;;;3.03;2.75;;;9.60;99.90;;;;;;5072812;28;20530;-67
2023/10/27 01:45:30;;;;;;;2.70;2.50;;;9.60;99.90;;;;;;5073778;28;20040;-67
2023/10/27 01:47:56;;;;;;;2.83;2.63;;;9.60;99.90;;;;;;5073544;28;20037;-69
2023/10/27 01:50:21;;;;;;;2.50;2.30;;;9.60;99.90;;;;;;5073671;28;20131;-67
2023/10/27 01:52:47;;;;;;;2.63;2.42;;;9.60;99.90;;;;;;5073557;28;20054;-67
2023/10/27 01:55:13;;;;;;;2.40;2.20;;;9.60;99.90;;;;;;5073572;28;20406;-67
2023/10/27 01:57:39;;;;;;;3.08;2.88;;;9.70;99.90;;;;;;5073540;28;20041;-66
2023/10/27 02:00:05;;;;;;;3.42;2.30;;;9.70;99.90;;;;;;5073539;28;20044;-67
2023/10/27 02:02:30;;;;;;;2.90;2.60;;;9.60;99.90;;;;;;5089375;28;20499;-67
2023/10/27 02:04:56;;;;;;;2.58;2.38;;;9.60;99.90;;;;;;5073397;28;20032;-67
2023/10/27 02:07:24;;;;;;;2.90;2.70;;;9.70;99.90;;;;;;5073382;28;20068;-67
2023/10/27 02:09:51;;;;;;;2.65;2.45;;;9.60;99.90;;;;;;5073371;28;20048;-67
2023/10/27 02:12:17;;;;;;;2.63;2.42;;;9.70;99.90;;;;;;5073376;28;20032;-67
2023/10/27 02:14:42;;;;;;;2.80;2.47;;;9.50;99.90;;;;;;5073374;28;20051;-66
2023/10/27 02:17:08;;;;;;;2.45;2.25;;;9.60;99.90;;;;;;5073270;28;20041;-66
2023/10/27 02:19:33;;;;;;;2.60;2.40;;;9.60;99.90;;;;;;5073286;28;20040;-66
2023/10/27 02:21:59;;;;;;;2.72;2.53;;;9.60;99.90;;;;;;5073197;28;20036;-66
2023/10/27 02:24:25;;;;;;;2.60;2.40;;;9.70;99.90;;;;;;5072946;28;20054;-66
2023/10/27 02:26:50;;;;;;;2.60;2.40;;;9.70;99.90;;;;;;5071607;28;20049;-66
2023/10/27 02:29:17;;;;;;;2.47;2.28;;;9.70;99.90;;;;;;5072863;28;20072;-67
2023/10/27 02:31:43;;;;;;;2.13;1.92;;;9.70;99.90;;;;;;5072722;28;20048;-66
2023/10/27 02:34:09;;;;;;;2.70;2.50;;;9.70;99.90;;;;;;5073156;28;20051;-66
2023/10/27 02:36:35;;;;;;;2.90;2.60;;;9.70;99.90;;;;;;5073175;28;20087;-67
2023/10/27 02:39:00;;;;;;;2.85;2.65;;;9.80;99.90;;;;;;5073088;28;20090;-67
2023/10/27 02:41:27;;;;;;;2.72;2.53;;;10.50;99.90;;;;;;5072786;28;20048;-67
2023/10/27 02:43:53;;;;;;;2.63;2.33;;;9.70;99.90;;;;;;5073017;28;20059;-67
2023/10/27 02:46:18;;;;;;;2.97;2.63;;;9.80;99.90;;;;;;5072944;28;20415;-67
2023/10/27 02:48:44;;;;;;;3.08;2.72;;;9.80;99.90;;;;;;5072663;28;20041;-67
2023/10/27 02:51:10;;;;;;;2.20;2.00;;;9.80;99.90;;;;;;5072689;28;20040;-67
2023/10/27 02:53:36;;;;;;;3.05;2.60;;;9.70;99.90;;;;;;5072893;28;20040;-67
2023/10/27 02:56:09;;;;;;;2.70;2.42;;;10.70;99.90;;;;;;5076646;28;20403;-67
2023/10/27 02:58:35;;;;;;;2.58;2.38;;;9.80;99.90;;;;;;5076639;28;20040;-67
2023/10/27 03:01:14;;;;;;;2.53;2.33;;;9.80;99.90;;;;;;5075677;28;20040;-67
2023/10/27 03:03:41;;;;;;;2.53;2.30;;;9.80;99.90;;;;;;5076559;28;20047;-67
2023/10/27 03:06:06;;;;;;;2.63;2.42;;;10.00;99.90;;;;;;5076750;28;20072;-67
2023/10/27 03:08:33;;;;;;;2.67;2.40;;;9.80;99.90;;;;;;5076844;28;20519;-67
2023/10/27 03:10:59;;;;;;;2.40;2.20;;;9.80;99.90;;;;;;5076423;28;20067;-67
2023/10/27 03:13:27;;;;;;;2.60;2.40;;;9.80;99.90;;;;;;5076693;28;20036;-67
2023/10/27 03:15:53;;;;;;;2.58;2.38;;;9.80;99.90;;;;;;5076319;28;20114;-67
2023/10/27 03:18:19;;;;;;;2.20;2.00;;;10.60;99.90;;;;;;5075078;28;20041;-67
2023/10/27 03:20:44;;;;;;;2.65;2.30;;;9.80;99.90;;;;;;5074989;28;20045;-67
2023/10/27 03:23:10;;;;;;;2.70;2.50;;;9.80;99.90;;;;;;5076226;28;20115;-69
2023/10/27 03:25:36;;;;;;;3.03;2.72;;;9.80;99.90;;;;;;5076396;28;20044;-67
2023/10/27 03:28:01;;;;;;;2.80;2.60;;;9.80;99.90;;;;;;5076095;28;20477;-67
2023/10/27 03:30:28;;;;;;;2.33;2.13;;;9.80;99.90;;;;;;5076325;28;20075;-67
2023/10/27 03:32:53;;;;;;;2.83;2.63;;;9.80;99.90;;;;;;5076339;28;20459;-67
2023/10/27 03:35:19;;;;;;;2.60;2.40;;;10.40;99.90;;;;;;5075061;28;20068;-67
2023/10/27 03:37:45;;;;;;;2.40;2.20;;;9.80;99.90;;;;;;5076199;28;20127;-67
2023/10/27 03:40:11;;;;;;;2.83;2.63;;;9.80;99.90;;;;;;5075853;28;20059;-67
2023/10/27 03:42:36;;;;;;;2.65;2.45;;;9.80;99.90;;;;;;5074435;28;20064;-67
2023/10/27 03:45:02;;;;;;;2.95;2.70;;;9.70;99.90;;;;;;5076099;28;20484;-67
2023/10/27 03:47:28;;;;;;;2.72;2.53;;;9.80;99.90;;;;;;5076045;28;20040;-67
2023/10/27 03:49:54;;;;;;;2.60;2.40;;;9.70;99.90;;;;;;5075992;28;20549;-67
2023/10/27 03:52:19;;;;;;;2.80;2.60;;;9.80;99.90;;;;;;5075604;28;20472;-67
2023/10/27 03:54:45;;;;;;;2.83;2.63;;;9.80;99.90;;;;;;5075545;28;20079;-67
2023/10/27 03:57:10;;;;;;;2.53;2.33;;;9.80;99.90;;;;;;5074243;28;20048;-67
2023/10/27 03:59:36;;;;;;;2.88;2.67;;;10.50;99.90;;;;;;5075767;28;20044;-67
2023/10/27 04:02:02;;;;;;;2.97;2.75;;;9.80;99.90;;;;;;5075768;28;20075;-68
2023/10/27 04:04:28;;;;;;;3.10;2.90;;;9.70;99.90;;;;;;5075208;28;20476;-67
2023/10/27 04:06:57;;;;;;;3.35;3.05;;;9.80;99.90;;;;;;5074335;28;20424;-67
2023/10/27 04:09:22;;;;;;;2.55;2.35;;;9.80;99.90;;;;;;5075737;28;20037;-67
2023/10/27 04:11:49;;;;;;;2.92;2.67;;;9.70;99.90;;;;;;5075600;28;20086;-67
2023/10/27 04:14:14;;;;;;;2.72;2.53;;;10.60;99.90;;;;;;5075603;28;20090;-67
2023/10/27 04:16:40;;;;;;;2.85;2.65;;;9.80;99.90;;;;;;5075206;28;20041;-67
2023/10/27 04:19:06;;;;;;;2.67;2.45;;;9.80;99.90;;;;;;5073940;28;20051;-67
2023/10/27 04:21:32;;;;;;;2.97;2.75;;;9.80;99.90;;;;;;5075458;28;20047;-67
2023/10/27 04:23:58;;;;;;;3.00;2.80;;;9.80;99.90;;;;;;5075353;28;20044;-67
2023/10/27 04:26:24;;;;;;;3.15;2.85;;;9.80;99.90;;;;;;5075294;28;20066;-67
2023/10/27 04:28:50;;;;;;;2.55;2.35;;;9.80;99.90;;;;;;5075295;28;20361;-67
2023/10/27 04:31:16;;;;;;;2.63;2.42;;;9.80;99.90;;;;;;5073708;28;20116;-67
2023/10/27 04:33:43;;;;;;;2.40;2.20;;;9.80;99.90;;;;;;5075185;28;20442;-67
2023/10/27 04:36:09;;;;;;;2.45;2.25;;;9.80;99.90;;;;;;5075310;28;20146;-66
2023/10/27 04:38:34;;;;;;;2.85;2.65;;;9.80;99.90;;;;;;5074762;28;20037;-66
2023/10/27 04:41:00;;;;;;;2.40;2.20;;;9.80;99.90;;;;;;5074618;28;20032;-66
2023/10/27 04:43:25;;;;;;;2.75;2.55;;;10.60;99.90;;;;;;5074993;28;20082;-67
2023/10/27 04:45:51;;;;;;;2.35;2.15;;;9.80;99.90;;;;;;5074960;28;20036;-66
2023/10/27 04:48:17;;;;;;;2.45;2.25;;;9.80;99.90;;;;;;5074903;28;20480;-66
2023/10/27 04:50:42;;;;;;;2.55;2.35;;;9.80;99.90;;;;;;5074843;28;20089;-66
2023/10/27 04:53:08;;;;;;;2.33;2.13;;;9.80;99.90;;;;;;5074797;28;20033;-66
2023/10/27 04:55:33;;;;;;;2.05;1.95;;;9.80;99.90;;;;;;5074723;28;20047;-66
2023/10/27 04:57:59;;;;;;;2.00;1.90;;;10.10;99.90;;;;;;5074531;28;20412;-66
2023/10/27 05:00:25;;;;;;;2.20;2.08;;;9.80;99.90;;;;;;5073323;28;20044;-67
2023/10/27 05:02:53;;;;;;;2.00;1.90;;;9.80;99.90;;;;;;5074641;28;20040;-67
2023/10/27 05:05:20;;;;;;;2.38;2.17;;;9.80;99.90;;;;;;5074564;28;20472;-66
2023/10/27 05:07:47;;;;;;;2.30;2.10;;;9.80;99.90;;;;;;5074412;28;20040;-68
2023/10/27 05:10:13;;;;;;;2.35;2.15;;;9.80;99.90;;;;;;5074467;28;20036;-66
2023/10/27 05:12:38;;;;;;;2.20;2.00;;;9.80;99.90;;;;;;5074018;28;20086;-66
2023/10/27 05:15:05;;;;;;;2.30;2.10;;;9.80;99.90;;;;;;5074414;28;20040;-66
2023/10/27 05:17:36;;;;;;;1.77;1.67;;;9.80;99.90;;;;;;5088814;28;20040;-67
2023/10/27 05:20:05;;;;;;;2.05;1.88;;;9.80;99.90;;;;;;5074301;28;20057;-66
2023/10/27 05:22:31;;;;;;;2.33;2.13;;;9.70;99.90;;;;;;5074239;28;20068;-66
2023/10/27 05:24:57;;;;;;;2.58;2.38;;;9.80;99.90;;;;;;5072845;28;20045;-66
2023/10/27 05:27:24;;;;;;;2.15;2.05;;;9.80;99.90;;;;;;5073801;28;20052;-66
2023/10/27 05:29:50;;;;;;;2.00;1.90;;;9.80;99.90;;;;;;5074105;28;20481;-66
2023/10/27 05:32:17;;;;;;;6.43;2.30;;;9.80;99.90;;;;;;5073790;28;20036;-67
2023/10/27 05:34:44;;;;;;;2.17;2.00;;;9.90;99.90;;;;;;5073957;28;20051;-66
2023/10/27 05:37:09;;;;;;;2.10;2.00;;;9.80;99.90;;;;;;5073982;28;20036;-66
2023/10/27 05:39:35;;;;;;;2.00;1.90;;;9.80;99.90;;;;;;5073810;28;20427;-66
2023/10/27 05:42:01;;;;;;;1.90;1.80;;;9.80;99.90;;;;;;5073427;28;20068;-66
2023/10/27 05:44:26;;;;;;;2.17;1.90;;;9.80;99.90;;;;;;5073789;28;20392;-67
2023/10/27 05:46:52;;;;;;;2.60;1.90;;;9.80;99.90;;;;;;5073820;28;20083;-67
2023/10/27 05:49:17;;;;;;;1.95;1.85;;;9.80;99.90;;;;;;5073721;28;20040;-67
2023/10/27 05:51:43;;;;;;;2.28;1.80;;;9.80;99.90;;;;;;5055521;28;20076;-67
2023/10/27 05:54:08;;;;;;;2.90;1.80;;;9.80;99.90;;;;;;5073322;28;20036;-67
2023/10/27 05:56:34;;;;;;;2.35;2.15;;;9.80;99.90;;;;;;5073188;28;20480;-72
2023/10/27 05:59:00;;;;;;;2.08;1.92;;;9.80;99.90;;;;;;5072313;28;20090;-67
2023/10/27 06:01:25;;;;;;;2.00;1.90;;;9.80;99.90;;;;;;5073295;28;20036;-67
2023/10/27 06:03:53;;;;;;;2.10;1.90;;;9.80;99.90;;;;;;5073543;28;20119;-67
2023/10/27 06:06:19;;;;;;;2.00;1.90;;;9.80;99.90;;;;;;5073444;28;20041;-67
2023/10/27 06:08:45;;;;;;;2.20;2.00;;;9.80;99.90;;;;;;5073113;28;20059;-67
2023/10/27 06:11:11;;;;;;;3.28;2.03;;;9.80;99.90;;;;;;5071823;28;20051;-67
2023/10/27 06:13:37;;;;;;;2.20;2.00;;;9.80;99.90;;;;;;5071787;28;20043;-68
2023/10/27 06:16:04;;;;;;;2.00;1.90;;;9.80;99.90;;;;;;5073029;28;20036;-67
2023/10/27 06:18:30;;;;;;;2.30;2.10;;;9.70;99.90;;;;;;5072990;28;20033;-67
2023/10/27 06:20:55;;;;;;;10.52;2.55;;;9.80;99.90;;;;;;5073246;28;20039;-67
2023/10/27 06:23:21;;;;;;;2.42;2.22;;;9.80;99.90;;;;;;5072928;28;20037;-68
2023/10/27 06:25:46;;;;;;;3.50;2.50;;;9.70;99.90;;;;;;5073179;28;20036;-68
2023/10/27 06:28:12;;;;;;;2.38;2.17;;;9.80;99.90;;;;;;5088218;28;20102;-69
2023/10/27 06:30:38;;;;;;;2.30;2.10;;;9.80;99.90;;;;;;5071561;28;20067;-67
2023/10/27 06:33:03;;;;;;;2.25;1.77;;;9.80;99.90;;;;;;5072637;28;20399;-67
2023/10/27 06:35:36;;;;;;;2.30;2.10;;;9.80;99.90;;;;;;5073056;28;20033;-67
2023/10/27 06:38:02;;;;;;;1.88;1.73;;;9.80;99.90;;;;;;5073092;28;20078;-67
2023/10/27 06:40:27;;;;;;;2.10;2.00;;;9.80;99.90;;;;;;5072797;28;20040;-67
2023/10/27 06:42:53;;;;;;;2.17;1.98;;;9.80;99.90;;;;;;5072663;28;20056;-66
2023/10/27 06:45:19;;;;;;;1.92;1.83;;;9.80;99.90;;;;;;5072770;28;20439;-67
2023/10/27 06:47:45;;;;;;;2.25;1.83;;;9.80;99.90;;;;;;5072898;28;20036;-67
2023/10/27 06:50:11;;;;;;;1.83;1.73;;;9.80;99.90;;;;;;5072703;28;20044;-67
2023/10/27 06:52:36;;;;;;;1.83;1.73;;;10.40;99.90;;;;;;5072578;28;20032;-67
2023/10/27 06:55:02;;;;;;;2.42;2.22;;;9.80;99.90;;;;;;5072683;28;20044;-67
2023/10/27 06:57:28;;;;;;;2.15;1.95;;;9.80;99.90;;;;;;5072718;28;20400;-67
2023/10/27 06:59:57;;;;;;;2.47;2.28;;;9.80;99.90;;;;;;5072926;28;20415;-68
2023/10/27 07:02:23;;;;;;;2.03;1.92;;;9.80;99.90;;;;;;5072894;28;20403;-66
2023/10/27 07:04:49;;;;;;;2.40;2.20;;;9.80;99.90;;;;;;5071600;28;20492;-66
2023/10/27 07:07:15;;;;;;;2.30;2.10;;;9.80;99.90;;;;;;5072723;28;20082;-66
2023/10/27 07:09:41;;;;;;;1.83;1.73;;;9.80;99.90;;;;;;5072821;28;20086;-66
2023/10/27 07:12:08;;;;;;;2.22;2.10;;;9.80;99.90;;;;;;5072571;28;20480;-67
2023/10/27 07:14:35;;;;;;;2.78;2.53;;;9.80;99.90;;;;;;5071002;28;20048;-71
2023/10/27 07:17:01;;;;;;;2.63;2.15;;;9.80;99.90;;;;;;5072330;28;20045;-66
2023/10/27 07:19:27;;;;;;;2.10;1.90;;;9.80;99.90;;;;;;5070922;28;20052;-67
2023/10/27 07:21:52;;;;;;;2.63;2.42;;;9.80;99.90;;;;;;5072471;28;20075;-66
2023/10/27 07:24:18;;;;;;;2.65;2.45;;;9.80;99.90;;;;;;5054252;28;20095;-66
2023/10/27 07:26:44;;;;;;;2.72;2.50;;;9.90;99.90;;;;;;5071068;28;20452;-66
2023/10/27 07:29:09;;;;;;;2.42;2.22;;;9.90;99.90;;;;;;5072146;28;20105;-66
2023/10/27 07:31:35;;;;;;;3.33;2.28;;;10.40;99.90;;;;;;5072397;28;20122;-65
2023/10/27 07:34:02;;;;;;;2.42;2.22;;;9.90;99.90;;;;;;5072338;28;20033;-65
2023/10/27 07:36:27;;;;;;;2.03;1.92;;;9.90;99.90;;;;;;5070748;28;20056;-67
2023/10/27 07:38:53;;;;;;;2.05;1.95;;;9.90;99.90;;;;;;5070745;28;20416;-65
2023/10/27 07:41:19;;;;;;;3.50;2.35;;;9.90;99.90;;;;;;5074853;28;20136;-67
2023/10/27 07:43:44;;;;;;;2.60;2.40;;;10.00;99.90;;;;;;5074359;28;20515;-65
2023/10/27 07:46:11;;;;;;;2.90;2.58;;;10.00;99.90;;;;;;5075864;28;20511;-65
2023/10/27 07:48:37;;;;;;;2.45;2.25;;;9.90;99.90;;;;;;5075814;28;20068;-65
2023/10/27 07:51:03;;;;;;;2.30;2.10;;;10.00;99.90;;;;;;5075770;28;20032;-65
2023/10/27 07:53:29;;;;;;;3.15;2.50;;;10.00;99.90;;;;;;5075872;28;20063;-65
2023/10/27 07:55:56;;;;;;;2.15;2.03;;;9.90;99.90;;;;;;5074185;28;20109;-65
2023/10/27 07:58:24;;;;;;;7.78;7.18;;;10.00;99.90;;;;;;5075692;28;20047;-65
2023/10/27 08:00:51;;;;;;;2.92;2.72;;;10.00;99.90;;;;;;5075379;28;20094;-66
2023/10/27 08:03:17;;;;;;;2.60;2.40;;;10.00;99.90;;;;;;5074202;28;20124;-68
2023/10/27 08:05:43;;;;;;;2.58;2.38;;;9.90;99.90;;;;;;5091197;28;20048;-69
2023/10/27 08:08:09;;;;;;;3.55;2.58;;;10.50;99.90;;;;;;5075488;28;20036;-66
2023/10/27 08:10:38;;;;;;;2.60;2.40;;;10.00;99.90;;;;;;5075578;28;20159;-66
2023/10/27 08:13:05;;;;;;;2.22;2.03;;;10.00;99.90;;;;;;5075644;28;20032;-67
2023/10/27 08:15:32;;;;;;;2.92;2.72;;;10.20;99.90;;;;;;5075684;28;20107;-67
2023/10/27 08:17:57;;;;;;;2.15;1.95;;;10.10;99.90;;;;;;5075583;28;20044;-67
2023/10/27 08:20:23;;;;;;;2.45;2.25;;;10.10;99.90;;;;;;5075512;28;20040;-68
2023/10/27 08:22:49;;;;;;;2.50;2.30;;;10.10;99.90;;;;;;5075426;28;20107;-68
2023/10/27 08:25:15;;;;;;;2.92;2.67;;;10.30;99.90;;;;;;5073842;28;20200;-67
2023/10/27 08:27:41;;;;;;;2.63;2.42;;;10.20;99.90;;;;;;5075231;28;20491;-68
2023/10/27 08:30:07;;;;;;;2.92;2.72;;;10.10;99.90;;;;;;5075026;28;20493;-68
2023/10/27 08:32:32;;;;;;;2.40;2.20;;;10.20;99.90;;;;;;5073977;28;20392;-68
2023/10/27 08:34:58;;;;;;;2.10;1.90;;;10.20;99.90;;;;;;5074966;28;20036;-74
2023/10/27 08:37:25;;;;;;;2.72;2.53;;;10.20;99.90;;;;;;5073845;28;20051;-66
2023/10/27 08:39:51;;;;;;;2.28;2.15;;;10.30;99.90;;;;;;5074721;28;20078;-72
2023/10/27 08:42:18;;;;;;;2.20;2.00;;;11.00;99.90;;;;;;5073377;28;20209;-73
2023/10/27 08:44:44;;;;;;;2.95;2.60;;;11.10;99.90;;;;;;5073358;28;20423;-66
2023/10/27 08:47:10;;;;;;;2.22;2.10;;;10.40;99.90;;;;;;5074733;28;20037;-67
2023/10/27 08:49:36;;;;;;;5.40;2.85;;;10.40;99.90;;;;;;5074754;28;20466;-67
2023/10/27 08:52:03;;;;;;;2.40;2.20;;;10.40;99.90;;;;;;5090301;28;20153;-65
2023/10/27 08:54:30;;;;;;;2.38;2.17;;;10.50;99.90;;;;;;5074778;28;20404;-65
2023/10/27 08:56:56;;;;;;;2.72;2.53;;;11.30;99.90;;;;;;5073463;28;20063;-66
2023/10/27 08:59:22;;;;;;;2.60;2.40;;;10.40;99.90;;;;;;5074635;28;20032;-67
2023/10/27 09:01:47;;;;;;;2.50;2.30;;;10.50;99.90;;;;;;5074538;28;20089;-67
2023/10/27 09:04:14;;;;;;;2.05;1.95;;;10.40;99.90;;;;;;5073175;28;20547;-67
2023/10/27 09:06:41;;;;;;;2.53;2.33;;;10.50;99.90;;;;;;5074122;28;20044;-67
2023/10/27 09:09:09;;;;;;;2.67;2.47;;;10.50;99.90;;;;;;5073142;28;20036;-66
2023/10/27 09:11:42;;;;;;;2.10;2.00;;;10.40;99.90;;;;;;5074362;28;20551;-67
2023/10/27 09:14:26;;;;;;;2.47;2.28;;;10.50;99.90;;;;;;5074286;28;20377;-66
2023/10/27 09:17:07;;;;;;;2.22;2.03;;;10.70;99.90;;;;;;5074385;28;20460;-72
2023/10/27 09:19:33;;;;;;;2.00;1.90;;;10.50;99.90;;;;;;5074084;28;20045;-69
2023/10/27 09:21:59;;;;;;;2.15;1.95;;;10.50;99.90;;;;;;5073914;28;20040;-70
2023/10/27 09:24:26;;;;;;;2.72;2.53;;;10.60;99.90;;;;;;5072887;28;20392;-71
2023/10/27 09:26:53;;;;;;;2.72;2.53;;;10.50;99.90;;;;;;5073978;28;20048;-69
2023/10/27 09:29:20;;;;;;;2.25;2.13;;;10.50;99.90;;;;;;5073854;28;20041;-68
2023/10/27 09:31:46;;;;;;;2.67;2.47;;;10.60;99.90;;;;;;5074078;28;20396;-77
2023/10/27 09:34:19;;;;;;;2.70;2.50;;;10.60;99.90;;;;;;5072453;28;20036;-68
2023/10/27 09:36:46;;;;;;;3.03;2.70;;;10.60;99.90;;;;;;5073694;28;20044;-69
2023/10/27 09:39:16;;;;;;;2.10;2.00;;;10.60;99.90;;;;;;5072397;28;20044;-69
2023/10/27 09:41:47;;;;;;;2.30;2.10;;;10.70;99.90;;;;;;5072226;28;20048;-69
2023/10/27 09:44:19;;;;;;;2.20;2.00;;;10.80;99.90;;;;;;5072331;28;20498;-68
2023/10/27 09:46:54;;;;;;;2.60;2.40;;;10.70;99.90;;;;;;5072452;28;20130;-68
2023/10/27 09:49:32;;;;;;;2.72;2.53;;;10.80;99.90;;;;;;5073488;28;20128;-68
2023/10/27 09:52:00;;;;;;;2.50;2.30;;;10.80;99.90;;;;;;5073728;28;20480;-69
2023/10/27 09:54:33;;;;;;;2.20;2.00;;;10.80;99.90;;;;;;5073625;28;20043;-68
2023/10/27 09:57:00;;;;;;;2.50;2.30;;;10.80;99.90;;;;;;5073530;28;20055;-68
2023/10/27 09:59:28;;;;;;;2.38;2.17;;;11.10;99.90;;;;;;5071890;28;20094;-68
2023/10/27 10:01:55;;;;;;;2.53;2.33;;;10.80;99.90;;;;;;5073388;28;20055;-69
2023/10/27 10:04:52;;;;;;;2.28;2.08;;;10.80;99.90;;;;;;5071360;28;20048;-69
2023/10/27 10:07:27;;;;;;;2.20;2.00;;;10.80;99.90;;;;;;5071830;28;20055;-69
2023/10/27 10:09:52;;;;;;;2.22;2.10;;;10.80;99.90;;;;;;5072988;28;20040;-69
2023/10/27 10:12:18;;;;;;;2.42;2.22;;;10.70;99.90;;;;;;5073331;28;20471;-69
2023/10/27 10:14:45;;;;;;;2.50;2.30;;;10.80;99.90;;;;;;5073121;28;20032;-69
2023/10/27 10:17:11;;;;;;;2.47;2.28;;;10.80;99.90;;;;;;5073110;28;20040;-69
2023/10/27 10:19:54;;;;;;;2.60;2.40;;;10.80;99.90;;;;;;5073117;28;20114;-69
2023/10/27 10:22:39;;;;;;;2.20;2.00;;;10.70;99.90;;;;;;5072919;28;20459;-69
2023/10/27 10:25:23;;;;;;;2.58;2.38;;;10.70;99.90;;;;;;5073102;28;20063;-69
2023/10/27 10:28:07;;;;;;;2.33;2.13;;;10.70;99.90;;;;;;5071620;28;20485;-67
2023/10/27 10:30:40;;;;;;;2.20;2.00;;;10.70;99.90;;;;;;5072848;28;20044;-69
2023/10/27 10:33:16;;;;;;;2.60;2.40;;;10.80;99.90;;;;;;5072764;28;20040;-68
2023/10/27 10:35:46;;;;;;;2.00;1.90;;;10.80;99.90;;;;;;5072709;28;20047;-68
2023/10/27 10:38:21;;;;;;;2.33;2.13;;;10.80;99.90;;;;;;5072950;28;20430;-69
2023/10/27 10:41:02;;;;;;;2.30;2.10;;;10.80;99.90;;;;;;5071402;28;20050;-69
2023/10/27 10:43:30;;;;;;;;;;;11.20;99.90;;;;;;5071861;28;20455;-68
2023/10/27 10:46:03;;;;;;;2.53;2.33;;;10.90;99.90;;;;;;5071827;28;19927;-67
2023/10/27 10:48:31;;;;;;;2.30;2.10;;;10.80;99.90;;;;;;5054762;28;20446;-69
2023/10/27 10:51:03;;;;;;;2.50;2.30;;;11.70;99.90;;;;;;5073227;28;20040;-69
2023/10/27 10:53:30;;;;;;;2.40;2.20;;;10.90;99.90;;;;;;5071466;28;20041;-68
2023/10/27 10:56:00;;;;;;;2.38;2.22;;;11.60;99.90;;;;;;5088361;28;20446;-67
2023/10/27 10:58:32;;;;;;;2.63;2.42;;;10.80;99.90;;;;;;5072961;28;20044;-67
2023/10/27 11:00:58;;;;;;;2.38;2.17;;;10.90;99.90;;;;;;5072830;28;20090;-67
2023/10/27 11:03:28;;;;;;;2.80;2.60;;;10.90;99.90;;;;;;5072867;28;20433;-67
2023/10/27 11:05:59;;;;;;;2.38;2.17;;;10.90;99.90;;;;;;5072558;28;20040;-66
2023/10/27 11:08:34;;;;;;;2.80;2.60;;;10.90;99.90;;;;;;5072845;28;20040;-66
2023/10/27 11:11:02;;;;;;;2.50;2.30;;;10.80;99.90;;;;;;5071536;28;20503;-66
2023/10/27 11:13:28;;;;;;;2.55;2.35;;;10.90;99.90;;;;;;5072800;28;20033;-66
2023/10/27 11:15:54;;;;;;;2.63;2.30;;;11.00;99.90;;;;;;5075045;28;20040;-66
2023/10/27 11:18:20;;;;;;;2.80;2.60;;;10.90;99.90;;;;;;5058428;28;20413;-66
2023/10/27 11:20:47;;;;;;;4.28;2.88;;;10.90;99.90;;;;;;5076317;28;20033;-68
2023/10/27 11:23:15;;;;;;;3.00;2.80;;;10.90;99.90;;;;;;5076289;28;20056;-76
2023/10/27 11:25:42;;;;;;;2.78;2.58;;;11.00;99.90;;;;;;5076651;28;20040;-72
2023/10/27 11:28:37;;;;;;;2.75;2.55;;;11.00;99.90;;;;;;5074892;28;20497;-72
2023/10/27 11:31:08;;;;;;;2.88;2.67;;;11.00;99.90;;;;;;5071718;28;20044;-68
2023/10/27 11:33:52;;;;;;;2.72;2.53;;;11.00;99.90;;;;;;5076122;28;20412;-69
2023/10/27 11:36:18;;;;;;;2.90;2.70;;;11.00;99.90;;;;;;5075139;28;20483;-69
2023/10/27 11:38:45;;;;;;;3.20;3.00;;;11.70;99.90;;;;;;5076253;28;20039;-69
2023/10/27 11:41:12;;;;;;;3.10;2.90;;;11.10;99.90;;;;;;5074720;28;20032;-68
2023/10/27 11:43:39;;;;;;;2.70;2.50;;;11.20;99.90;;;;;;5076182;28;20042;-68
2023/10/27 11:46:09;;;;;;;2.67;2.47;;;11.20;99.90;;;;;;5076113;28;20548;-68
2023/10/27 11:48:35;;;;;;;2.72;2.53;;;11.20;99.90;;;;;;5076010;28;20048;-68
2023/10/27 11:51:00;;;;;;;3.47;3.17;;;11.20;99.90;;;;;;5076055;28;20472;-68
2023/10/27 11:53:26;;;;;;;3.15;2.88;;;11.20;99.90;;;;;;5075941;28;20036;-68
2023/10/27 11:55:52;;;;;;;3.17;2.97;;;11.20;99.90;;;;;;5075967;28;20040;-67
2023/10/27 11:58:18;;;;;;;2.83;2.63;;;11.20;99.90;;;;;;5075889;28;20049;-68
2023/10/27 12:00:43;;;;;;;2.75;2.55;;;11.10;99.90;;;;;;5075848;28;20048;-68
2023/10/27 12:03:09;;;;;;;3.42;3.13;;;11.20;99.90;;;;;;5074672;28;20033;-68
2023/10/27 12:05:34;;;;;;;2.80;2.60;;;11.30;99.90;;;;;;5075795;28;20045;-68
2023/10/27 12:08:00;;;;;;;3.35;3.15;;;12.10;99.90;;;;;;5075689;28;20036;-68
2023/10/27 12:10:25;;;;;;;2.97;2.78;;;11.10;99.90;;;;;;5075638;28;20621;-68
2023/10/27 12:12:51;;;;;;;2.40;2.20;;;11.10;99.90;;;;;;5075662;28;20028;-68
2023/10/27 12:15:16;;;;;;;3.17;2.97;;;11.50;99.90;;;;;;5075610;28;20126;-68
2023/10/27 12:17:43;;;;;;;2.70;2.50;;;11.10;99.90;;;;;;5075503;28;20400;-68
2023/10/27 12:20:10;;;;;;;2.83;2.63;;;11.10;99.90;;;;;;5074352;28;20032;-68
2023/10/27 12:22:36;;;;;;;3.05;2.83;;;11.10;99.90;;;;;;5075439;28;20047;-68
2023/10/27 12:25:02;;;;;;;3.17;2.88;;;11.10;99.90;;;;;;5075419;28;20040;-68
2023/10/27 12:27:27;;;;;;;3.28;2.92;;;11.10;99.90;;;;;;5074929;28;20522;-68
2023/10/27 12:29:53;;;;;;;2.50;2.30;;;11.10;99.90;;;;;;5075298;28;20040;-68
2023/10/27 12:32:18;;;;;;;3.05;2.75;;;11.20;99.90;;;;;;5075302;28;20029;-68
2023/10/27 12:34:45;;;;;;;4.35;2.92;;;11.20;99.90;;;;;;5074909;28;20427;-68
2023/10/27 12:37:11;;;;;;;3.38;3.08;;;11.20;99.90;;;;;;5073657;28;20420;-68
2023/10/27 12:39:36;;;;;;;3.55;3.25;;;11.20;99.90;;;;;;5075184;28;20070;-68
2023/10/27 12:42:05;;;;;;;3.42;3.13;;;11.20;99.90;;;;;;5073470;28;20504;-68
2023/10/27 12:44:31;;;;;;;2.85;2.65;;;11.20;99.90;;;;;;5075138;28;20102;-68
2023/10/27 12:46:56;;;;;;;2.88;2.67;;;11.20;99.90;;;;;;5075360;28;20044;-68
2023/10/27 12:49:22;;;;;;;3.22;2.92;;;11.20;99.90;;;;;;5073432;28;20401;-68
2023/10/27 12:51:47;;;;;;;2.50;2.30;;;12.40;99.90;;;;;;5074627;28;20040;-68